Terminal Aerodrome Forecast
Issued by NWS Wilmington, NC

Home | Current Version | Previous Version | Text Only | Print | Product List | Glossary On
Versions: 1 2 3 4 5 6 7 8 9 10 11 12
000
FTUS42 KILM 012300 RRA
TAFLBT
TAF
KLBT 012343Z 0200/0224 16009KT P6SM VCSH SCT060 OVC120
     FM020500 18013G22KT P6SM -RA SCT025 OVC070
     FM021100 21020G28KT 5SM -RA BR SCT010 OVC028
     FM021300 22020G30KT 3SM RA BR OVC010
     FM021500 27020G28KT P6SM SCT020 BKN080
     FM021800 29022G34KT P6SM SCT035 SCT100=

USA.gov is the U.S. government's official web portal to all federal, state and local government web resources and services.